• Join FlightAware (Why Join?)
  • Login
  • US Flag 
11:12AM EST


 

Airport Tracker/Info


-or-


 

Live Flight TrackerFlight Track Log ✈ N146RF ✈ 21-Aug-2014 ✈ KBMG - KLNA

Flight Track Log - Related Links

Times and Time Zones

All times are in EDT time to prevent confusion due to time zone crossing. See the N146RF flight status page for this flight to view local times or setup timezone preferences in your user account.

Time Position Orientation Groundspeed Altitude Reporting Facility
EDT Latitude Longitude Course Direction KTS MPH feet Rate Location/Type
09:25AM 39.0953 -86.5850 159° South 150 173 2,000  Level Indianapolis Center
09:26AM 39.0583 -86.5644 157° South 142 163 2,600 600 Climbing Indianapolis Center
09:27AM 39.0194 -86.5414 155° Southeast 146 168 3,300 660 Climbing Indianapolis Center
09:28AM 38.9814 -86.5183 155° Southeast 147 169 4,000 720 Climbing Indianapolis Center
09:29AM 38.9367 -86.4908 154° Southeast 147 169 4,800 660 Climbing Indianapolis Center
09:30AM 38.8997 -86.4686 155° Southeast 147 169 5,400 600 Climbing Indianapolis Center
09:31AM 38.8607 -86.4423 159° South  Level Estimated
09:31AM 38.8642 -86.4461 154° Southeast 147 169 6,100  Level Indianapolis Center
09:32AM 38.8269 -86.4244 156° South 147 169 6,700 540 Climbing Indianapolis Center
09:33AM 38.7906 -86.4022 155° Southeast 147 169 7,300 540 Climbing Indianapolis Center
09:34AM 38.7528 -86.3800 155° Southeast 147 169 7,900 540 Climbing Indianapolis Center
09:35AM 38.7161 -86.3572 154° Southeast 147 169 8,500 600 Climbing Indianapolis Center
09:36AM 38.6708 -86.3289 154° Southeast 147 169 9,200 600 Climbing Indianapolis Center
09:38AM 38.6339 -86.3069 155° Southeast 147 169 9,800 540 Climbing Indianapolis Center
09:39AM 38.5958 -86.2844 155° Southeast 147 169 10,400 480 Climbing Indianapolis Center
09:40AM 38.5567 -86.2603 154° Southeast 149 171 10,900 480 Climbing Indianapolis Center
09:41AM 38.5178 -86.2372 155° Southeast 150 173 11,500 480 Climbing Indianapolis Center
09:42AM 38.4781 -86.2125 154° Southeast 153 176 12,000 480 Climbing Indianapolis Center
09:43AM 38.4369 -86.1881 155° Southeast 157 181 12,600 540 Climbing Indianapolis Center
09:44AM 38.3875 -86.1581 155° Southeast 158 182 13,200 540 Climbing Indianapolis Center
09:45AM 38.3447 -86.1328 155° Southeast 163 188 13,800 480 Climbing Indianapolis Center
09:46AM 38.3017 -86.1069 155° Southeast 166 191 14,300 480 Climbing Indianapolis Center
09:47AM 38.2583 -86.0806 154° Southeast 167 192 14,800 480 Climbing Indianapolis Center
09:48AM 38.2153 -86.0547 155° Southeast 168 193 15,300 480 Climbing Indianapolis Center
09:49AM 38.1714 -86.0286 155° Southeast 168 193 15,800 480 Climbing Indianapolis Center
09:50AM 38.1281 -86.0033 155° Southeast 170 196 16,300 480 Climbing Indianapolis Center
09:51AM 38.0731 -85.9703 155° Southeast 178 205 16,800 480 Climbing Indianapolis Center
09:52AM 38.0281 -85.9436 155° Southeast 178 205 17,300 420 Climbing Indianapolis Center
09:53AM 37.9819 -85.9161 155° Southeast 178 205 17,700 420 Climbing Indianapolis Center
09:54AM 37.9356 -85.8892 155° Southeast 179 206 18,200 480 Climbing Indianapolis Center
09:55AM 37.8906 -85.8628 155° Southeast 179 206 18,700 420 Climbing Indianapolis Center
09:56AM 37.8444 -85.8347 154° Southeast 179 206 19,100 480 Climbing Indianapolis Center
09:57AM 37.7864 -85.8008 155° Southeast 185 213 19,700 480 Climbing Indianapolis Center
09:58AM 37.7389 -85.7728 155° Southeast 186 214 20,100 360 Climbing Indianapolis Center
09:59AM 37.6900 -85.7456 156° South 187 215 20,500 420 Climbing Indianapolis Center
10:00AM 37.6428 -85.7175 155° Southeast 187 215 21,000 420 Climbing Indianapolis Center
10:01AM 37.5981 -85.6881 152° Southeast 187 215 21,400 360 Climbing Indianapolis Center
10:02AM 37.5486 -85.6608 156° South 187 215 21,800 420 Climbing Indianapolis Center
10:03AM 37.4986 -85.6328 156° South 188 216 22,300 420 Climbing Indianapolis Center
10:04AM 37.4403 -85.5992 155° Southeast 189 217 22,700 300 Climbing Indianapolis Center
10:05AM 37.3925 -85.5703 154° Southeast 189 217 23,000 120 Climbing Indianapolis Center
10:07AM 37.3408 -85.5414 156° South 197 227 23,000  Level Indianapolis Center
10:08AM 37.2869 -85.5092 155° Southeast 201 231 23,000  Level Indianapolis Center
10:09AM 37.2381 -85.4792 154° Southeast 197 227 23,000  Level Indianapolis Center
10:10AM 37.1869 -85.4500 156° South 198 228 23,000  Level Indianapolis Center
10:11AM 37.1356 -85.4208 156° South 198 228 23,000  Level Indianapolis Center
10:12AM 37.0858 -85.3917 155° Southeast 198 228 23,000  Level Indianapolis Center
10:13AM 37.0267 -85.3592 156° South 197 227 23,000  Level Indianapolis Center
10:14AM 36.9772 -85.3300 155° Southeast 197 227 23,000  Level Indianapolis Center
10:15AM 36.9261 -85.3022 157° South 197 227 23,000  Level Indianapolis Center
10:16AM 36.8761 -85.2708 153° Southeast 199 229 23,000  Level Indianapolis Center
10:17AM 36.8250 -85.2431 156° South 199 229 23,000  Level Indianapolis Center
10:18AM 36.7742 -85.2136 155° Southeast 199 229 23,000  Level Indianapolis Center
10:19AM 36.7117 -85.1781 155° Southeast 201 231 23,000  Level Indianapolis Center
10:20AM 36.6597 -85.1481 155° Southeast 201 231 23,000  Level Indianapolis Center
10:21AM 36.6078 -85.1178 155° Southeast 203 234 23,000  Level Indianapolis Center
10:22AM 36.5553 -85.0894 157° South 203 234 23,000  Level Indianapolis Center
10:23AM 36.5028 -85.0586 155° Southeast 204 235 23,000  Level Indianapolis Center
10:24AM 36.4500 -85.0281 155° Southeast 206 237 23,000  Level Indianapolis Center
10:25AM 36.3864 -84.9925 156° South 207 238 23,000  Level Indianapolis Center
10:26AM 36.3325 -84.9631 156° South 207 238 23,000  Level Indianapolis Center
10:27AM 36.2797 -84.9317 154° Southeast 208 239 23,000  Level Indianapolis Center
10:28AM 36.2261 -84.9017 156° South 208 239 23,000  Level Indianapolis Center
10:29AM 36.1708 -84.8706 156° South 212 244 23,000  Level Indianapolis Center
10:30AM 36.1161 -84.8400 156° South 212 244 23,000  Level Indianapolis Center
10:31AM 36.0500 -84.8022 155° Southeast 212 244 23,000  Level Indianapolis Center
10:32AM 35.9939 -84.7706 155° Southeast 217 250 23,000  Level Indianapolis Center
10:33AM 35.9375 -84.7383 155° Southeast 217 250 23,000  Level Indianapolis Center
10:34AM 35.8806 -84.7075 156° South 217 250 23,000  Level Indianapolis Center
10:36AM 35.8239 -84.6767 156° South 218 251 23,000  Level Indianapolis Center
10:37AM 35.7461 -84.6350 156° South 215 247 23,000  Level Atlanta Center
10:38AM 35.6897 -84.6064 158° South 215 247 23,000  Level Atlanta Center
10:39AM 35.6336 -84.5753 156° South 215 247 23,000  Level Atlanta Center
10:40AM 35.5794 -84.5444 155° Southeast 215 247 23,000  Level Atlanta Center
10:41AM 35.5317 -84.5186 156° South 215 247 23,000  Level Atlanta Center
10:42AM 35.4756 -84.4875 156° South 215 247 23,000  Level Atlanta Center
10:44AM 35.3650 -84.4258 156° South 215 247 23,000  Level Atlanta Center
10:45AM 35.3108 -84.3978 157° South 215 247 23,000  Level Atlanta Center
10:46AM 35.2525 -84.3669 157° South 215 247 23,000  Level Atlanta Center
10:47AM 35.1983 -84.3336 153° Southeast 215 247 23,000  Level Atlanta Center
10:48AM 35.1442 -84.3056 157° South 215 247 23,000  Level Atlanta Center
10:49AM 35.0881 -84.2747 156° South 215 247 23,000  Level Atlanta Center
10:50AM 35.0317 -84.2467 158° South 215 247 23,000  Level Atlanta Center
10:51AM 34.9753 -84.2161 156° South 215 247 23,000  Level Atlanta Center
10:52AM 34.9211 -84.1856 155° Southeast 215 247 23,000  Level Atlanta Center
10:53AM 34.8669 -84.1553 155° Southeast 215 247 23,000  Level Atlanta Center
10:54AM 34.8086 -84.1247 157° South 215 247 23,000  Level Atlanta Center
10:55AM 34.7542 -84.0944 155° Southeast 215 247 23,000  Level Atlanta Center
10:56AM 34.6958 -84.0614 155° Southeast 215 247 23,000  Level Atlanta Center
10:57AM 34.6375 -84.0286 155° Southeast 215 247 23,000  Level Atlanta Center
10:58AM 34.5872 -83.9983 154° Southeast 215 247 23,000  Level Atlanta Center
10:59AM 34.5353 -83.9706 156° South 215 247 23,000  Level Atlanta Center
11:00AM 34.4747 -83.9406 158° South 215 247 23,000  Level Atlanta Center
11:01AM 34.4183 -83.9103 156° South 215 247 23,000  Level Atlanta Center
11:02AM 34.3619 -83.8803 156° South 215 247 23,000  Level Atlanta Center
11:03AM 34.3033 -83.8503 157° South 215 247 23,000  Level Atlanta Center
11:04AM 34.2492 -83.8200 155° Southeast 215 247 23,000  Level Atlanta Center
11:05AM 34.1925 -83.7903 157° South 215 247 23,000  Level Atlanta Center
11:06AM 34.1361 -83.7603 156° South 215 247 23,000  Level Atlanta Center
11:07AM 34.0797 -83.7303 156° South 215 247 23,000  Level Atlanta Center
11:08AM 34.0233 -83.7031 158° South 215 247 23,000  Level Atlanta Center
11:09AM 33.9669 -83.6706 154° Southeast 215 247 23,000  Level Atlanta Center
11:10AM 33.9125 -83.6408 156° South 215 247 23,000  Level Atlanta Center
11:11AM 33.8561 -83.6136 158° South 215 247 23,000  Level Atlanta Center
11:12AM 33.7975 -83.5814 155° Southeast 215 247 23,000  Level Atlanta Center
11:13AM 33.7431 -83.5517 156° South 215 247 23,000  Level Atlanta Center
11:14AM 33.6847 -83.5244 159° South 215 247 23,000  Level Atlanta Center
11:15AM 33.6322 -83.4925 153° Southeast 215 247 23,000  Level Atlanta Center
11:16AM 33.5736 -83.4653 159° South 215 247 23,000  Level Atlanta Center
11:17AM 33.5194 -83.4358 156° South 215 247 23,000  Level Atlanta Center
11:18AM 33.4608 -83.4064 157° South 215 247 23,000  Level Atlanta Center
11:19AM 33.4064 -83.3769 156° South 215 247 23,000  Level Atlanta Center
11:20AM 33.3478 -83.3500 159° South 215 247 23,000  Level Atlanta Center
11:21AM 33.2933 -83.3206 156° South 215 247 23,000  Level Atlanta Center
11:22AM 33.2367 -83.2936 158° South 215 247 23,000  Level Atlanta Center
11:23AM 33.1822 -83.2619 154° Southeast 215 247 23,000  Level Atlanta Center
11:24AM 33.1258 -83.2328 157° South 215 247 23,000  Level Atlanta Center
11:25AM 33.0672 -83.2058 159° South 215 247 23,000  Level Atlanta Center
11:26AM 33.0083 -83.1719 154° Southeast 215 247 23,000  Level Atlanta Center
11:27AM 32.9539 -83.1453 158° South 215 247 23,000  Level Atlanta Center
11:28AM 32.8953 -83.1136 156° South 215 247 23,000  Level Atlanta Center
11:29AM 32.8428 -83.0844 155° Southeast 215 247 23,000  Level Atlanta Center
11:30AM 32.7906 -83.0578 157° South 215 247 23,000  Level Atlanta Center
11:31AM 32.7361 -83.0314 158° South 215 247 23,000  Level Atlanta Center
11:33AM 32.6383 -82.9789 156° South 227 261 23,000  Level Jacksonville Center
11:34AM 32.5758 -82.9467 157° South 227 261 23,000  Level Jacksonville Center
11:35AM 32.5256 -82.9222 158° South 227 261 23,000  Level Jacksonville Center
11:36AM 32.4692 -82.8925 156° South 227 261 23,000  Level Jacksonville Center
11:37AM 32.4169 -82.8681 158° South 227 261 23,000  Level Jacksonville Center
11:38AM 32.3544 -82.8336 155° Southeast 222 255 23,000  Level Jacksonville Center
11:39AM 32.2981 -82.8067 158° South 216 249 23,000  Level Jacksonville Center
11:40AM 32.2436 -82.7797 157° South 216 249 23,000  Level Jacksonville Center
11:41AM 32.1872 -82.7503 156° South 216 249 23,000  Level Jacksonville Center
11:42AM 32.1308 -82.7208 156° South 216 249 23,000  Level Jacksonville Center
11:43AM 32.0786 -82.6939 156° South 216 249 23,000  Level Jacksonville Center
11:44AM 32.0203 -82.6647 157° South 216 249 23,000  Level Jacksonville Center
11:45AM 31.9681 -82.6378 156° South 216 249 23,000  Level Jacksonville Center
11:46AM 31.9136 -82.6086 156° South 216 249 23,000  Level Jacksonville Center
11:47AM 31.8572 -82.5819 158° South 216 249 23,000  Level Jacksonville Center
11:48AM 31.8092 -82.5578 157° South 210 242 23,000  Level Jacksonville Center
11:49AM 31.7506 -82.5311 159° South 210 242 23,000  Level Jacksonville Center
11:50AM 31.6961 -82.5019 155° Southeast 210 242 23,000  Level Jacksonville Center
11:51AM 31.6439 -82.4753 157° South 215 247 23,000  Level Jacksonville Center
11:52AM 31.5894 -82.4461 155° Southeast 215 247 23,000  Level Jacksonville Center
11:53AM 31.5350 -82.4197 158° South 215 247 23,000  Level Jacksonville Center
11:54AM 31.4828 -82.3931 156° South 210 242 23,000  Level Jacksonville Center
11:55AM 31.4283 -82.3692 159° South 215 247 23,000  Level Jacksonville Center
11:56AM 31.3761 -82.3403 155° Southeast 215 247 23,000  Level Jacksonville Center
11:57AM 31.3217 -82.3139 158° South 215 247 23,000  Level Jacksonville Center
11:58AM 31.2653 -82.2875 158° South 215 247 23,000  Level Jacksonville Center
11:59AM 31.2108 -82.2633 159° South 215 247 23,000  Level Jacksonville Center
12:00PM 31.1606 -82.2347 154° Southeast 210 242 23,000  Level Jacksonville Center
12:01PM 31.1039 -82.2058 156° South 215 247 23,000  Level Jacksonville Center
12:02PM 31.0517 -82.1772 155° Southeast 215 247 23,000  Level Jacksonville Center
12:03PM 30.9972 -82.1508 157° South 215 247 23,000  Level Jacksonville Center
12:04PM 30.9450 -82.1247 157° South 215 247 23,000  Level Jacksonville Center
12:05PM 30.8903 -82.0986 158° South 215 247 23,000  Level Jacksonville Center
12:06PM 30.8381 -82.0747 159° South 210 242 23,000  Level Jacksonville Center
12:07PM 30.7814 -82.0464 157° South 210 242 23,000  Level Jacksonville Center
12:08PM 30.7269 -82.0200 157° South 215 247 23,000  Level Jacksonville Center
12:09PM 30.6767 -81.9939 156° South 215 247 23,000  Level Jacksonville Center
12:10PM 30.6222 -81.9703 160° South 215 247 23,000  Level Jacksonville Center
12:11PM 30.5678 -81.9444 158° South 215 247 23,000 -300 Level Jacksonville Center
12:12PM 30.5133 -81.9136 154° Southeast 215 247 22,500 -480 Descending Jacksonville Center
12:13PM 30.4525 -81.8853 158° South 215 247 22,100 -300 Descending Jacksonville Center
12:14PM 30.3958 -81.8594 159° South 226 260 22,000 -60 Descending Jacksonville Center
12:15PM 30.3372 -81.8311 157° South 226 260 22,000  Level Jacksonville Center
12:16PM 30.2828 -81.8053 158° South 226 260 22,000  Level Jacksonville Center
12:17PM 30.2283 -81.7772 156° South 221 254 22,000  Level Jacksonville Center
12:18PM 30.1758 -81.7536 159° South 204 235 22,000  Level Jacksonville Center
12:19PM 30.1214 -81.7278 158° South 219 252 22,000  Level Jacksonville Center
12:20PM 30.0667 -81.7022 158° South 209 241 22,000  Level Jacksonville Center
12:21PM 30.0122 -81.6764 158° South 209 241 22,000  Level Jacksonville Center
12:22PM 29.9597 -81.6483 155° Southeast 214 246 22,000  Level Jacksonville Center
12:23PM 29.9053 -81.6228 158° South 214 246 22,000  Level Jacksonville Center
12:24PM 29.8592 -81.6017 158° South 214 246 22,000  Level Jacksonville Center
12:25PM 29.8044 -81.5736 156° South 214 246 22,000  Level Jacksonville Center
12:26PM 29.7522 -81.5506 159° South 214 246 22,000  Level Jacksonville Center
12:27PM 29.6997 -81.5225 155° Southeast 214 246 22,000  Level Jacksonville Center
12:28PM 29.6450 -81.4969 158° South 214 246 22,000  Level Jacksonville Center
12:29PM 29.5906 -81.4739 160° South 214 246 22,000  Level Jacksonville Center
12:30PM 29.5381 -81.4461 155° Southeast 214 246 22,000  Level Jacksonville Center
12:31PM 29.4856 -81.4206 157° South 214 246 22,000  Level Jacksonville Center
12:32PM 29.4353 -81.3997 160° South 207 238 22,000  Level Jacksonville Center
12:33PM 29.3828 -81.3744 157° South 207 238 22,000  Level Jacksonville Center
12:34PM 29.3325 -81.3514 158° South 207 238 22,000  Level Jacksonville Center
12:35PM 29.2778 -81.3261 158° South 207 238 22,000  Level Jacksonville Center
12:36PM 29.2275 -81.3031 158° South 207 238 22,000  Level Jacksonville Center
12:37PM 29.1792 -81.2778 155° Southeast 201 231 22,000  Level Jacksonville Center
12:38PM 29.1286 -81.2547 158° South 196 226 22,000  Level Jacksonville Center
12:39PM 29.0803 -81.2317 157° South 196 226 22,000  Level Jacksonville Center
12:40PM 29.0300 -81.2064 156° South 196 226 22,000  Level Jacksonville Center
12:41PM 28.9817 -81.1861 160° South 196 226 22,000  Level Jacksonville Center
12:43PM 28.8567 -81.1544 167° South 190 219 22,000  Level Miami Center
12:44PM 28.8056 -81.1422 168° South 188 216 22,000  Level Miami Center
12:45PM 28.7539 -81.1308 169° South 188 216 22,000  Level Miami Center
12:46PM 28.6928 -81.1150 167° South 193 222 22,000  Level Miami Center
12:47PM 28.6433 -81.1047 170° South 192 221 22,000  Level Miami Center
12:48PM 28.5872 -81.0933 170° South 192 221 22,000  Level Miami Center
12:49PM 28.5350 -81.0808 168° South 192 221 22,000  Level Miami Center
12:50PM 28.4839 -81.0694 169° South 190 219 22,000  Level Miami Center
12:51PM 28.4328 -81.0581 169° South 189 217 22,000 -300 Level Miami Center
12:52PM 28.3683 -81.0436 169° South 200 230 21,500 -540 Descending Miami Center
12:53PM 28.3114 -81.0306 169° South 211 243 21,000 -540 Descending Miami Center
12:54PM 28.2500 -81.0169 169° South 213 245 20,500 -540 Descending Miami Center
12:55PM 28.1886 -81.0033 169° South 214 246 20,000 -540 Descending Miami Center
12:56PM 28.1272 -80.9892 168° South 213 245 19,500 -540 Descending Miami Center
12:57PM 28.0669 -80.9758 169° South 213 245 18,900 -540 Descending Miami Center
12:58PM 28.0069 -80.9628 169° South 211 243 18,400 -540 Descending Miami Center
12:59PM 27.9517 -80.9497 168° South 209 241 17,900 -420 Descending Miami Center
01:01PM 27.8933 -80.9369 169° South 207 238 17,600 -480 Descending Miami Center
01:02PM 27.8347 -80.9239 169° South 205 236 17,000 -540 Descending Miami Center
01:03PM 27.7767 -80.9108 169° South 205 236 16,500 -540 Descending Miami Center
01:04PM 27.7183 -80.8978 169° South 204 235 16,000 -540 Descending Miami Center
01:05PM 27.6600 -80.8847 169° South 204 235 15,400 -600 Descending Miami Center
01:06PM 27.6017 -80.8722 169° South 204 235 14,800 -600 Descending Miami Center
01:07PM 27.5494 -80.8611 169° South 203 234 14,200 -600 Descending Miami Center
01:08PM 27.4875 -80.8478 169° South 204 235 13,600 -600 Descending Miami Center
01:09PM 27.4361 -80.8353 168° South 199 229 13,000 -780 Descending Miami Center
01:10PM 27.3789 -80.8228 169° South 199 229 12,100 -900 Descending Miami Center
01:11PM 27.3244 -80.8108 169° South 191 220 11,200 -1,080 Descending Miami Center
01:12PM 27.2733 -80.7992 169° South 181 208 9,900 -1,260 Descending Miami Center
01:13PM 27.2189 -80.7872 169° South 185 213 8,600 -1,260 Descending Miami Center
01:14PM 27.1669 -80.7758 169° South 184 212 7,400 -1,260 Descending Miami Center
01:15PM 27.1139 -80.7642 169° South 184 212 6,100 -720 Descending Miami Center
01:16PM 27.0814 -80.7303 137° Southeast 170 196 6,000 -60 Descending Miami Center
01:17PM 27.0519 -80.6903 130° Southeast 163 188 6,000  Level Miami Center
01:18PM 27.0236 -80.6525 130° Southeast 155 178 6,000 -120 Level Miami Center
01:19PM 26.9947 -80.6136 130° Southeast 155 178 5,800 -360 Descending Miami Center
01:20PM 26.9625 -80.5714 131° Southeast 168 193 5,300 -660 Descending Miami Center
01:21PM 26.9314 -80.5303 130° Southeast 168 193 4,500 -960 Descending Miami Center
01:22PM 26.8956 -80.4833 131° Southeast 189 217 3,400 -780 Descending Miami Center
01:23PM 26.8667 -80.4442 130° Southeast 173 199 3,000 -240 Descending Miami Center
01:24PM 26.8372 -80.4058 131° Southeast 155 178 3,000  Level Miami Center
01:25PM 26.8103 -80.3700 130° Southeast 148 170 3,000 -180 Level Miami Center
01:26PM 26.7814 -80.3333 131° Southeast 150 173 2,700 -300 Descending Miami Center
01:27PM 26.7497 -80.2906 130° Southeast 162 186 2,500 -180 Descending Miami Center
01:28PM 26.7225 -80.2547 130° Southeast 153 176 2,400 -300 Descending Miami Center
01:29PM 26.6939 -80.2181 131° Southeast 153 176 1,900 -360 Descending Miami Center
01:30PM 26.6642 -80.1767 129° Southeast 158 182 1,700 -240 Descending Miami Center
01:32PM 26.6233 -80.1295 134° Southeast  Level FlightAware Approximate
01:39PM 26.5931 -80.0851 130° Southeast  Level Estimated
01:40PM 26.5931 -80.0851 North  Level Estimated
01:41PM 26.5931 -80.0851 130° Southeast  Level Estimated
01:42PM 26.5931 -80.0851 North  Level Estimated
01:43PM 26.5931 -80.0851 130° Southeast  Level Estimated
01:44PM 26.5931 -80.0851 North  Level Estimated